Santa Claus, Indiana
Current Conditions -  °F | °C
As of 5:15 PM on Wednesday 17 Dec 2014 (Local Time) from KHNB Reporting Station
Overcast Overcast  
Wind Chill: 26°   Ceiling: 2100
Heat Index: 32°   Visibility: 10mi
Dew Point: 23°   Wind: 6mph
Humidity: 69%   Direction: 360°N
Pressure: 30.29"   Gusts: NA
Location:  38.12°N, 86.91°W
Report Text: KHNB 172315Z AUTO 36005KT 10SM OVC021 00/M05 A3029 RMK AO1
Loading
Personal Weather Stations






























Interactive Weather Map New forecast layout! Learn more

10-Day Weather Forecast

Advertisements
Track Severe Weather on mobile